Terminal Aerodrome Forecast
Issued by NWS

Home | Current Version | Previous Version | Text Only | Print | Product List | Glossary On
Versions: 1 2 3 4 5 6 7 8 9 10 11 12 13 14 15 16 17 18 19 20 21 22 23 24 25 26 27 28 29 30
000
FTUS41 KPBZ 050500
TAFHLG
TAF
KHLG 050538Z 0506/0606 30009G19KT 1SM -SN BR BKN006 OVC013
     FM050900 31010KT 6SM -SN OVC015
     FM051700 34008KT P6SM BKN025
     FM052300 32005KT P6SM FEW030=

USA.gov is the U.S. government's official web portal to all federal, state and local government web resources and services.